createdAt,value
2023-04-02T00:01:00.456Z,0.80
2023-04-02T00:03:45.484Z,0.80
2023-04-02T00:06:30.656Z,0.70
2023-04-02T00:09:00.478Z,0.87
2023-04-02T00:11:40.267Z,0.70
2023-04-02T00:14:22.677Z,0.80
2023-04-02T00:16:49.663Z,0.80
2023-04-02T00:19:37.098Z,1.20
2023-04-02T00:22:08.793Z,0.70
2023-04-02T00:24:35.817Z,0.80
2023-04-02T00:27:02.683Z,0.80
2023-04-02T00:29:29.638Z,0.80
2023-04-02T00:32:00.074Z,0.80
2023-04-02T00:34:36.949Z,0.80
2023-04-02T00:37:05.245Z,0.93
2023-04-02T00:39:38.860Z,0.97
2023-04-02T00:42:06.735Z,1.33
2023-04-02T00:44:39.750Z,0.60
2023-04-02T00:47:26.152Z,1.10
2023-04-02T00:50:28.311Z,1.33
2023-04-02T00:52:58.242Z,1.00
2023-04-02T00:55:37.327Z,0.80
2023-04-02T00:58:05.757Z,1.10
2023-04-02T01:00:35.187Z,1.27
2023-04-02T01:03:17.512Z,0.80
2023-04-02T01:05:52.152Z,0.80
2023-04-02T01:08:24.816Z,1.63
2023-04-02T01:11:42.801Z,0.80
2023-04-02T01:14:29.818Z,1.17
2023-04-02T01:17:34.727Z,1.33
2023-04-02T01:20:43.905Z,1.70
2023-04-02T01:23:46.626Z,0.80
2023-04-02T01:27:26.966Z,1.27
2023-04-02T01:29:57.276Z,1.37
2023-04-02T01:32:29.064Z,1.47
2023-04-02T01:34:56.845Z,1.03
2023-04-02T01:37:35.887Z,0.80
2023-04-02T01:40:30.065Z,1.50
2023-04-02T01:43:11.358Z,0.90
2023-04-02T01:45:38.592Z,1.37
2023-04-02T01:48:19.226Z,1.10
2023-04-02T01:50:49.904Z,0.97
2023-04-02T01:53:21.013Z,1.07
2023-04-02T01:55:58.222Z,0.90
2023-04-02T01:58:29.562Z,0.77
2023-04-02T02:01:18.154Z,3.90
2023-04-02T02:03:46.431Z,0.90
2023-04-02T02:06:16.687Z,0.77
2023-04-02T02:09:03.112Z,0.80
2023-04-02T02:11:32.805Z,0.70
2023-04-02T02:14:06.496Z,1.47
2023-04-02T02:16:36.062Z,1.00
2023-04-02T02:19:04.866Z,1.20
2023-04-02T02:21:43.685Z,1.43
2023-04-02T02:24:36.923Z,0.70
2023-04-02T02:27:19.007Z,1.00
2023-04-02T02:29:54.299Z,0.93
2023-04-02T02:32:25.931Z,0.70
2023-04-02T02:35:04.307Z,0.80
2023-04-02T02:37:38.587Z,0.70
2023-04-02T02:40:15.766Z,0.80
2023-04-02T02:42:52.671Z,0.87
2023-04-02T02:45:26.708Z,0.87
2023-04-02T02:47:56.311Z,0.80
2023-04-02T02:50:30.427Z,1.27
2023-04-02T02:53:09.124Z,0.83
2023-04-02T02:55:38.144Z,0.87
2023-04-02T02:58:15.133Z,1.20
2023-04-02T03:00:43.636Z,1.10
2023-04-02T03:03:23.529Z,0.87
2023-04-02T03:05:58.457Z,1.23
2023-04-02T03:08:42.422Z,0.90
2023-04-02T03:11:35.328Z,0.77
2023-04-02T03:14:19.222Z,0.80
2023-04-02T03:16:53.072Z,0.87
2023-04-02T03:19:46.346Z,3.10
2023-04-02T03:22:46.946Z,1.03
2023-04-02T03:25:33.626Z,1.60
2023-04-02T03:28:08.340Z,1.10
2023-04-02T03:31:01.657Z,1.03
2023-04-02T03:33:39.266Z,2.60
2023-04-02T03:36:27.420Z,1.20
2023-04-02T03:39:24.426Z,1.20
2023-04-02T03:42:03.830Z,1.80
2023-04-02T03:44:56.154Z,1.00
2023-04-02T03:47:36.222Z,1.57
2023-04-02T03:50:27.256Z,1.60
2023-04-02T03:52:54.304Z,1.40
2023-04-02T03:55:31.906Z,1.23
2023-04-02T03:58:21.063Z,1.30
2023-04-02T04:01:20.234Z,1.70
2023-04-02T04:03:53.590Z,1.40
2023-04-02T04:06:29.459Z,1.90
2023-04-02T04:09:00.227Z,1.40
2023-04-02T04:11:34.557Z,1.50
2023-04-02T04:14:13.839Z,1.50
2023-04-02T04:17:02.084Z,1.40
2023-04-02T04:19:48.825Z,1.40
2023-04-02T04:22:35.033Z,1.33
2023-04-02T04:25:06.959Z,1.80
2023-04-02T04:27:45.165Z,1.70
2023-04-02T04:30:46.065Z,1.50
2023-04-02T04:33:32.835Z,1.63
2023-04-02T04:36:02.346Z,2.10
2023-04-02T04:38:36.185Z,1.07
2023-04-02T04:41:15.825Z,1.20
2023-04-02T04:43:48.337Z,3.10
2023-04-02T04:46:28.915Z,1.43
2023-04-02T04:49:19.109Z,1.30
2023-04-02T04:51:52.316Z,1.40
2023-04-02T04:54:20.685Z,1.53
2023-04-02T04:56:56.034Z,1.63
2023-04-02T04:59:28.789Z,1.20
2023-04-02T05:02:21.113Z,1.70
2023-04-02T05:04:52.981Z,0.90
2023-04-02T05:07:29.847Z,2.70
2023-04-02T05:10:33.744Z,1.20
2023-04-02T05:13:15.953Z,2.07
2023-04-02T05:16:20.827Z,1.60
2023-04-02T05:18:59.603Z,1.10
2023-04-02T05:22:05.483Z,1.13
2023-04-02T05:25:00.777Z,1.00
2023-04-02T05:27:52.870Z,1.10
2023-04-02T05:30:28.639Z,1.40
2023-04-02T05:33:03.344Z,1.10
2023-04-02T05:35:36.151Z,1.60
2023-04-02T05:38:05.256Z,1.10
2023-04-02T05:40:40.432Z,1.00
2023-04-02T05:43:13.689Z,1.00
2023-04-02T05:45:44.799Z,1.30
2023-04-02T05:48:30.721Z,1.20
2023-04-02T05:50:59.175Z,1.30
2023-04-02T05:53:31.803Z,1.40
2023-04-02T05:56:26.678Z,1.47
2023-04-02T05:59:02.420Z,1.00
2023-04-02T06:01:46.399Z,1.07
2023-04-02T06:04:36.676Z,1.30
2023-04-02T06:07:20.789Z,0.90
2023-04-02T06:10:01.363Z,1.20
2023-04-02T06:12:58.595Z,1.00
2023-04-02T06:15:25.634Z,1.20
2023-04-02T06:18:01.104Z,1.43
2023-04-02T06:20:29.021Z,5.33
2023-04-02T06:23:23.967Z,1.07
2023-04-02T06:26:26.894Z,1.73
2023-04-02T06:29:33.426Z,1.83
2023-04-02T06:32:02.628Z,0.97
2023-04-02T06:34:32.036Z,1.23
2023-04-02T06:37:03.559Z,4.00
2023-04-02T06:39:30.499Z,1.50
2023-04-02T06:42:06.736Z,1.00
2023-04-02T06:44:37.145Z,1.40
2023-04-02T06:47:17.109Z,1.20
2023-04-02T06:50:14.541Z,3.33
2023-04-02T06:52:54.787Z,1.30
2023-04-02T06:55:53.891Z,1.60
2023-04-02T06:58:21.326Z,1.20
2023-04-02T07:00:51.139Z,2.10
2023-04-02T07:03:31.339Z,1.37
2023-04-02T07:06:00.416Z,1.37
2023-04-02T07:08:27.368Z,1.47
2023-04-02T07:10:55.012Z,3.13
2023-04-02T07:13:24.514Z,8.83
2023-04-02T07:15:54.242Z,12.10
2023-04-02T07:18:31.863Z,6.93
2023-04-02T07:20:59.013Z,5.40
2023-04-02T07:23:26.834Z,3.97
2023-04-02T07:25:56.109Z,3.17
2023-04-02T07:28:23.358Z,3.60
2023-04-02T07:30:51.697Z,2.53
2023-04-02T07:33:23.175Z,2.80
2023-04-02T07:35:52.127Z,2.10
2023-04-02T07:38:19.117Z,1.80
2023-04-02T07:40:46.258Z,2.57
2023-04-02T07:43:13.203Z,2.77
2023-04-02T07:45:40.052Z,1.93
2023-04-02T07:48:14.131Z,1.77
2023-04-02T07:50:41.330Z,1.63
2023-04-02T07:53:08.377Z,1.70
2023-04-02T07:55:35.539Z,1.80
2023-04-02T07:58:02.634Z,1.80
2023-04-02T08:00:30.500Z,2.47
2023-04-02T08:02:57.422Z,2.10
2023-04-02T08:05:24.460Z,2.20
2023-04-02T08:07:56.562Z,2.07
2023-04-02T08:10:24.495Z,1.80
2023-04-02T08:12:51.864Z,2.63
2023-04-02T08:15:18.942Z,2.10
2023-04-02T08:17:47.093Z,2.80
2023-04-02T08:20:22.389Z,2.07
2023-04-02T08:22:50.868Z,1.60
2023-04-02T08:25:18.366Z,3.70
2023-04-02T08:27:47.847Z,1.77
2023-04-02T08:30:16.613Z,1.87
2023-04-02T08:32:43.913Z,1.23
2023-04-02T08:35:16.883Z,1.00
2023-04-02T08:37:43.738Z,1.47
2023-04-02T08:40:33.650Z,1.10
2023-04-02T08:43:09.378Z,1.17
2023-04-02T08:46:00.367Z,0.90
2023-04-02T08:48:28.200Z,1.33
2023-04-02T08:50:55.476Z,1.43
2023-04-02T08:53:28.687Z,0.90
2023-04-02T08:56:11.433Z,1.33
2023-04-02T08:58:51.139Z,0.93
2023-04-02T09:01:59.889Z,1.63
2023-04-02T09:04:27.793Z,1.33
2023-04-02T09:06:57.158Z,1.90
2023-04-02T09:09:24.982Z,1.10
2023-04-02T09:11:59.079Z,1.40
2023-04-02T09:14:53.635Z,1.47
2023-04-02T09:17:26.688Z,0.90
2023-04-02T09:19:58.040Z,1.20
2023-04-02T09:22:32.126Z,1.20
2023-04-02T09:25:05.637Z,1.03
2023-04-02T09:27:36.195Z,1.47
2023-04-02T09:30:49.876Z,1.83
2023-04-02T09:33:16.757Z,1.20
2023-04-02T09:35:49.687Z,1.10
2023-04-02T09:38:20.938Z,1.00
2023-04-02T09:41:05.245Z,1.27
2023-04-02T09:43:39.211Z,1.63
2023-04-02T09:46:24.728Z,1.43
2023-04-02T09:49:01.513Z,1.10
2023-04-02T09:51:34.070Z,2.53
2023-04-02T09:54:03.950Z,1.20
2023-04-02T09:56:37.204Z,1.30
2023-04-02T09:59:13.113Z,8.33
2023-04-02T10:01:56.062Z,10.53
2023-04-02T10:04:44.720Z,6.53
2023-04-02T10:07:41.819Z,3.50
2023-04-02T10:10:31.523Z,2.77
2023-04-02T10:13:25.517Z,2.17
2023-04-02T10:16:16.454Z,4.60
2023-04-02T10:18:53.420Z,2.00
2023-04-02T10:21:44.140Z,1.87
2023-04-02T10:24:14.343Z,1.53
2023-04-02T10:27:21.891Z,1.40
2023-04-02T10:30:14.657Z,3.20
2023-04-02T10:32:59.988Z,1.57
2023-04-02T10:35:45.135Z,0.93
2023-04-02T10:38:35.157Z,2.43
2023-04-02T10:41:21.302Z,2.27
2023-04-02T10:44:12.601Z,1.30
2023-04-02T10:47:15.672Z,1.53
2023-04-02T10:49:47.027Z,1.10
2023-04-02T10:52:24.664Z,1.70
2023-04-02T10:54:55.360Z,1.10
2023-04-02T10:57:41.027Z,1.40
2023-04-02T11:00:11.632Z,1.10
2023-04-02T11:02:56.817Z,2.37
2023-04-02T11:05:29.577Z,1.43
2023-04-02T11:08:04.778Z,1.20
2023-04-02T11:10:37.209Z,1.10
2023-04-02T11:14:00.687Z,1.17
2023-04-02T11:16:28.115Z,0.80
2023-04-02T11:19:15.715Z,1.03
2023-04-02T11:22:23.800Z,1.23
2023-04-02T11:24:55.068Z,1.20
2023-04-02T11:27:36.681Z,1.90
2023-04-02T11:30:26.321Z,1.00
2023-04-02T11:32:53.264Z,0.83
2023-04-02T11:35:31.769Z,3.30
2023-04-02T11:38:11.864Z,1.07
2023-04-02T11:40:41.608Z,0.90
2023-04-02T11:43:32.984Z,0.90
2023-04-02T11:46:03.824Z,0.90
2023-04-02T11:48:36.200Z,0.80
2023-04-02T11:51:21.524Z,1.47
2023-04-02T11:53:54.127Z,0.87
2023-04-02T11:56:28.377Z,1.00
2023-04-02T11:59:13.716Z,1.50
2023-04-02T12:01:43.476Z,1.30
2023-04-02T12:04:22.433Z,0.97
2023-04-02T12:07:23.509Z,1.33
2023-04-02T12:09:56.169Z,1.10
2023-04-02T12:12:39.056Z,1.13
2023-04-02T12:15:30.989Z,0.80
2023-04-02T12:18:23.156Z,0.93
2023-04-02T12:20:56.206Z,1.00
2023-04-02T12:23:36.158Z,0.90
2023-04-02T12:26:27.733Z,0.90
2023-04-02T12:28:54.578Z,1.13
2023-04-02T12:31:24.688Z,0.80
2023-04-02T12:33:54.591Z,1.00
2023-04-02T12:36:23.531Z,1.03
2023-04-02T12:38:59.506Z,2.10
2023-04-02T12:41:31.485Z,11.30
2023-04-02T12:44:11.850Z,5.37
2023-04-02T12:46:40.200Z,1.33
2023-04-02T12:49:34.482Z,1.40
2023-04-02T12:52:18.354Z,2.50
2023-04-02T12:54:51.809Z,2.00
2023-04-02T12:57:40.068Z,18.00
2023-04-02T13:00:22.629Z,2.43
2023-04-02T13:02:59.936Z,12.20
2023-04-02T13:06:04.139Z,5.47
2023-04-02T13:08:43.053Z,5.83
2023-04-02T13:11:09.929Z,5.83
2023-04-02T13:13:40.166Z,16.27
2023-04-02T13:16:26.637Z,14.77
2023-04-02T13:19:35.282Z,8.77
2023-04-02T13:22:04.297Z,12.87
2023-04-02T13:24:33.400Z,15.37
2023-04-02T13:27:02.746Z,11.30
2023-04-02T13:29:34.900Z,4.70
2023-04-02T13:32:09.803Z,1.83
2023-04-02T13:34:36.636Z,1.30
2023-04-02T13:37:03.496Z,1.23
2023-04-02T13:39:30.411Z,1.57
2023-04-02T13:42:04.052Z,1.60
2023-04-02T13:44:33.989Z,1.20
2023-04-02T13:47:01.555Z,1.30
2023-04-02T13:49:29.414Z,2.80
2023-04-02T13:52:01.943Z,2.80
2023-04-02T13:54:51.237Z,3.20
2023-04-02T13:57:18.783Z,3.43
2023-04-02T13:59:45.621Z,4.20
2023-04-02T14:02:24.888Z,2.47
2023-04-02T14:05:26.717Z,1.73
2023-04-02T14:08:12.065Z,7.10
2023-04-02T14:10:56.859Z,4.23
2023-04-02T14:14:03.091Z,7.33
2023-04-02T14:16:35.800Z,1.83
2023-04-02T14:19:08.801Z,1.80
2023-04-02T14:22:22.884Z,2.30
2023-04-02T14:25:14.998Z,2.10
2023-04-02T14:28:03.467Z,2.10
2023-04-02T14:30:51.399Z,1.17
2023-04-02T14:33:42.771Z,1.50
2023-04-02T14:36:26.635Z,0.97
2023-04-02T14:39:09.381Z,1.20
2023-04-02T14:42:09.861Z,1.27
2023-04-02T14:45:14.965Z,1.63
2023-04-02T14:47:50.105Z,1.73
2023-04-02T14:50:28.456Z,1.57
2023-04-02T14:53:02.288Z,1.50
2023-04-02T14:55:41.580Z,2.90
2023-04-02T14:58:22.452Z,1.50
2023-04-02T15:01:03.576Z,1.37
2023-04-02T15:03:48.292Z,1.63
2023-04-02T15:06:34.778Z,1.70
2023-04-02T15:09:19.625Z,1.77
2023-04-02T15:11:57.648Z,1.30
2023-04-02T15:15:13.463Z,1.70
2023-04-02T15:17:40.364Z,1.90
2023-04-02T15:20:16.299Z,2.00
2023-04-02T15:23:02.024Z,1.60
2023-04-02T15:25:28.739Z,1.33
2023-04-02T15:28:26.103Z,1.40
2023-04-02T15:30:56.986Z,1.73
2023-04-02T15:33:42.486Z,3.33
2023-04-02T15:36:21.802Z,3.93
2023-04-02T15:39:02.203Z,3.77
2023-04-02T15:41:42.436Z,4.90
2023-04-02T15:44:15.231Z,5.60
2023-04-02T15:46:44.818Z,5.60
2023-04-02T15:49:42.442Z,5.33
2023-04-02T15:52:52.843Z,5.00
2023-04-02T15:55:46.070Z,5.50
2023-04-02T15:58:25.384Z,5.70
2023-04-02T16:01:26.308Z,5.80
2023-04-02T16:04:14.371Z,5.30
2023-04-02T16:07:19.207Z,4.80
2023-04-02T16:10:27.546Z,4.60
2023-04-02T16:13:03.041Z,4.13
2023-04-02T16:16:05.291Z,4.20
2023-04-02T16:19:01.181Z,4.47
2023-04-02T16:21:38.588Z,4.27
2023-04-02T16:24:14.450Z,4.67
2023-04-02T16:27:22.152Z,4.50
2023-04-02T16:30:23.778Z,4.70
2023-04-02T16:33:26.989Z,4.63
2023-04-02T16:36:26.436Z,4.50
2023-04-02T16:39:17.148Z,4.17
2023-04-02T16:41:53.101Z,4.90
2023-04-02T16:44:51.207Z,5.83
2023-04-02T16:47:39.309Z,5.40
2023-04-02T16:50:24.581Z,7.40
2023-04-02T16:53:14.703Z,7.03
2023-04-02T16:56:14.727Z,6.97
2023-04-02T16:59:27.721Z,7.80
2023-04-02T17:02:08.609Z,7.23
2023-04-02T17:04:41.300Z,8.70
2023-04-02T17:07:33.563Z,8.70
2023-04-02T17:10:32.023Z,7.23
2023-04-02T17:13:37.786Z,7.23
2023-04-02T17:16:13.917Z,7.50
2023-04-02T17:18:44.864Z,8.57
2023-04-02T17:21:18.897Z,7.07
2023-04-02T17:24:00.403Z,7.80
2023-04-02T17:26:34.150Z,7.43
2023-04-02T17:29:08.896Z,7.60
2023-04-02T17:31:38.342Z,7.47
2023-04-02T17:34:18.537Z,6.53
2023-04-02T17:37:00.139Z,6.30
2023-04-02T17:39:48.702Z,6.13
2023-04-02T17:42:31.441Z,5.73
2023-04-02T17:45:07.948Z,6.30
2023-04-02T17:47:56.337Z,7.17
2023-04-02T17:50:38.419Z,7.30
2023-04-02T17:53:41.304Z,7.17
2023-04-02T17:56:30.259Z,6.53
2023-04-02T17:59:37.120Z,6.03
2023-04-02T18:02:25.706Z,5.37
2023-04-02T18:05:17.642Z,4.93
2023-04-02T18:08:24.134Z,5.60
2023-04-02T18:11:21.670Z,5.90
2023-04-02T18:14:04.190Z,5.00
2023-04-02T18:16:54.921Z,5.97
2023-04-02T18:19:49.555Z,5.23
2023-04-02T18:22:22.347Z,5.73
2023-04-02T18:25:10.638Z,4.90
2023-04-02T18:27:37.369Z,5.70
2023-04-02T18:30:24.236Z,6.20
2023-04-02T18:33:34.851Z,6.43
2023-04-02T18:36:31.658Z,6.23
2023-04-02T18:39:21.139Z,6.43
2023-04-02T18:41:58.447Z,6.10
2023-04-02T18:44:58.738Z,7.17
2023-04-02T18:47:53.203Z,6.67
2023-04-02T18:50:37.709Z,6.60
2023-04-02T18:53:19.428Z,6.53
2023-04-02T18:56:03.227Z,6.27
2023-04-02T18:58:49.634Z,5.30
2023-04-02T19:01:26.157Z,6.13
2023-04-02T19:04:02.678Z,6.10
2023-04-02T19:06:42.052Z,7.17
2023-04-02T19:09:32.138Z,6.60
2023-04-02T19:11:58.919Z,6.67
2023-04-02T19:14:25.758Z,6.10
2023-04-02T19:17:24.506Z,6.97
2023-04-02T19:20:37.062Z,6.33
2023-04-02T19:23:42.588Z,6.37
2023-04-02T19:26:16.114Z,6.57
2023-04-02T19:29:12.341Z,8.10
2023-04-02T19:32:05.303Z,8.63
2023-04-02T19:34:59.864Z,7.57
2023-04-02T19:37:42.052Z,10.43
2023-04-02T19:40:57.484Z,8.20
2023-04-02T19:43:24.449Z,8.93
2023-04-02T19:45:51.552Z,9.23
2023-04-02T19:48:24.096Z,9.90
2023-04-02T19:50:50.999Z,8.30
2023-04-02T19:53:18.056Z,8.63
2023-04-02T19:55:46.538Z,9.97
2023-04-02T19:58:28.774Z,10.10
2023-04-02T20:00:56.965Z,9.43
2023-04-02T20:03:23.978Z,9.93
2023-04-02T20:05:51.529Z,9.60
2023-04-02T20:08:18.500Z,9.10
2023-04-02T20:10:46.159Z,10.70
2023-04-02T20:13:12.975Z,9.97
2023-04-02T20:15:41.126Z,11.47
2023-04-02T20:18:08.661Z,9.93
2023-04-02T20:20:35.747Z,9.67
2023-04-02T20:23:02.766Z,9.10
2023-04-02T20:25:29.647Z,9.13
2023-04-02T20:27:56.628Z,10.50
2023-04-02T20:30:23.570Z,8.80
2023-04-02T20:32:50.505Z,9.23
2023-04-02T20:35:17.658Z,9.07
2023-04-02T20:37:44.426Z,8.63
2023-04-02T20:40:11.409Z,8.63
2023-04-02T20:42:38.264Z,9.37
2023-04-02T20:45:05.903Z,7.70
2023-04-02T20:47:32.763Z,7.03
2023-04-02T20:49:59.655Z,7.20
2023-04-02T20:52:26.453Z,6.33
2023-04-02T20:54:53.421Z,6.90
2023-04-02T20:57:20.276Z,7.47
2023-04-02T20:59:47.351Z,7.07
2023-04-02T21:02:14.266Z,7.40
2023-04-02T21:04:41.070Z,6.60
2023-04-02T21:07:08.123Z,6.60
2023-04-02T21:09:34.996Z,7.20
2023-04-02T21:12:01.861Z,6.67
2023-04-02T21:14:28.759Z,7.63
2023-04-02T21:16:55.611Z,7.70
2023-04-02T21:19:22.398Z,6.63
2023-04-02T21:21:49.242Z,7.53
2023-04-02T21:24:15.997Z,6.67
2023-04-02T21:26:42.840Z,6.30
2023-04-02T21:29:12.412Z,5.70
2023-04-02T21:31:41.112Z,6.13
2023-04-02T21:34:10.995Z,6.00
2023-04-02T21:36:42.639Z,5.70
2023-04-02T21:39:21.083Z,5.53
2023-04-02T21:41:50.379Z,6.43
2023-04-02T21:44:20.860Z,5.70
2023-04-02T21:46:50.355Z,5.13
2023-04-02T21:49:21.238Z,5.00
2023-04-02T21:51:49.232Z,4.83
2023-04-02T21:54:16.073Z,5.23
2023-04-02T21:56:45.498Z,5.23
2023-04-02T21:59:15.232Z,5.23
2023-04-02T22:01:46.758Z,5.93
2023-04-02T22:04:20.107Z,4.30
2023-04-02T22:06:47.908Z,4.87
2023-04-02T22:09:21.653Z,5.10
2023-04-02T22:11:52.132Z,4.53
2023-04-02T22:14:19.714Z,5.50
2023-04-02T22:16:46.686Z,5.00
2023-04-02T22:19:16.142Z,4.80
2023-04-02T22:21:43.291Z,4.87
2023-04-02T22:24:14.900Z,5.07
2023-04-02T22:26:42.466Z,4.33
2023-04-02T22:29:09.425Z,5.10
2023-04-02T22:31:36.315Z,4.67
2023-04-02T22:34:05.758Z,4.60
2023-04-02T22:36:33.254Z,4.73
2023-04-02T22:39:01.522Z,4.90
2023-04-02T22:41:29.747Z,4.43
2023-04-02T22:43:57.161Z,4.50
2023-04-02T22:46:26.062Z,4.83
2023-04-02T22:48:53.780Z,4.67
2023-04-02T22:51:22.362Z,4.50
2023-04-02T22:53:50.055Z,4.30
2023-04-02T22:56:20.216Z,4.20
2023-04-02T22:58:47.219Z,4.37
2023-04-02T23:01:17.469Z,5.07
2023-04-02T23:03:44.997Z,7.00
2023-04-02T23:06:16.985Z,4.53
2023-04-02T23:08:43.891Z,5.10
2023-04-02T23:11:23.239Z,5.20
2023-04-02T23:13:54.275Z,4.30
2023-04-02T23:16:21.857Z,4.40
2023-04-02T23:18:49.455Z,5.47
2023-04-02T23:21:18.510Z,5.23
2023-04-02T23:23:47.237Z,4.73
2023-04-02T23:26:20.312Z,5.43
2023-04-02T23:28:47.839Z,4.80
2023-04-02T23:31:19.266Z,5.00
2023-04-02T23:33:46.757Z,5.00
2023-04-02T23:36:32.148Z,5.57
2023-04-02T23:39:06.899Z,4.87
2023-04-02T23:41:33.730Z,5.87
2023-04-02T23:44:00.626Z,5.00
2023-04-02T23:46:29.204Z,4.73
2023-04-02T23:48:57.167Z,5.07
2023-04-02T23:51:25.817Z,5.40
2023-04-02T23:53:54.098Z,5.17
2023-04-02T23:56:21.771Z,5.57
2023-04-02T23:58:50.127Z,5.50
